Time;durP1;ratioP1;P1;durP2;ratioP2;P2;SDS_P1;SDS_P2;PMS_P1;PMS_P2;Temp;Humidity;BMP_temperature;BMP_pressure;BME280_temperature;BME280_humidity;BME280_pressure;Samples;Min_cycle;Max_cycle;Signal;HPM_P1;HPM_P2
2020/12/01 00:00:42;;;;;;;14.93;10.98;;;8.30;73.30;;;;;;2090559;28;20511;-45
2020/12/01 00:01:52;;;;;;;13.82;10.65;;;8.40;73.50;;;;;;2098242;28;20443;-44
2020/12/01 00:02:53;;;;;;;16.83;11.52;;;8.40;73.70;;;;;;2107199;28;20011;-44
2020/12/01 00:03:53;;;;;;;11.70;10.00;;;8.40;73.50;;;;;;2107774;28;20386;-43
2020/12/01 00:04:54;;;;;;;13.27;10.68;;;8.40;73.50;;;;;;2108242;28;20028;-43
2020/12/01 00:05:56;;;;;;;12.93;9.93;;;8.30;73.50;;;;;;2107955;28;20059;-45
2020/12/01 00:06:56;;;;;;;12.82;10.30;;;8.40;73.70;;;;;;2108117;28;20477;-44
2020/12/01 00:07:57;;;;;;;12.90;10.00;;;8.40;73.80;;;;;;2108730;28;20051;-45
2020/12/01 00:08:58;;;;;;;13.23;9.70;;;8.40;74.00;;;;;;2107564;28;20024;-44
2020/12/01 00:09:59;;;;;;;13.15;9.75;;;8.30;73.90;;;;;;2108148;28;20481;-45
2020/12/01 00:10:59;;;;;;;11.90;9.48;;;8.30;73.90;;;;;;2107674;28;20031;-44
2020/12/01 00:12:00;;;;;;;12.88;8.98;;;8.40;74.10;;;;;;2107512;28;20029;-46
2020/12/01 00:13:02;;;;;;;12.23;8.95;;;8.40;74.10;;;;;;2106809;28;20028;-48
2020/12/01 00:14:04;;;;;;;11.52;8.80;;;8.40;74.10;;;;;;2107636;28;20031;-43
2020/12/01 00:15:04;;;;;;;10.43;8.00;;;8.40;74.10;;;;;;2107599;28;20035;-46
2020/12/01 00:16:05;;;;;;;10.13;7.53;;;8.40;74.20;;;;;;2106785;28;20036;-43
2020/12/01 00:17:05;;;;;;;10.55;7.85;;;8.40;74.30;;;;;;2108174;28;20557;-47
2020/12/01 00:18:06;;;;;;;9.52;7.72;;;8.40;74.30;;;;;;2107730;28;20040;-44
2020/12/01 00:19:06;;;;;;;9.85;7.80;;;8.40;74.40;;;;;;2108149;28;20028;-44
2020/12/01 00:20:09;;;;;;;9.60;7.15;;;8.40;74.50;;;;;;2107789;28;20118;-48
2020/12/01 00:21:15;;;;;;;8.70;7.07;;;8.40;74.50;;;;;;2108149;28;20056;-45
2020/12/01 00:22:18;;;;;;;9.57;7.45;;;8.40;74.50;;;;;;2107995;28;20070;-44
2020/12/01 00:23:19;;;;;;;8.95;7.40;;;8.40;74.50;;;;;;2107803;28;20465;-45
2020/12/01 00:24:19;;;;;;;9.38;6.90;;;8.50;74.60;;;;;;2106263;28;20030;-44
2020/12/01 00:25:21;;;;;;;8.48;6.57;;;8.50;74.60;;;;;;2107002;28;20396;-48
2020/12/01 00:26:21;;;;;;;9.00;7.40;;;8.50;74.80;;;;;;2106986;28;20497;-43
2020/12/01 00:27:22;;;;;;;7.15;6.40;;;8.50;74.70;;;;;;2107215;28;20030;-46
2020/12/01 00:28:22;;;;;;;8.55;6.88;;;8.50;74.70;;;;;;2107532;28;20028;-44
2020/12/01 00:29:23;;;;;;;9.57;7.40;;;8.50;74.80;;;;;;2108662;28;20020;-46
2020/12/01 00:30:25;;;;;;;8.00;6.88;;;8.50;74.60;;;;;;2107342;28;20024;-44
2020/12/01 00:31:25;;;;;;;8.15;6.85;;;8.50;74.70;;;;;;2106665;28;20016;-45
2020/12/01 00:32:26;;;;;;;8.90;6.72;;;8.50;74.60;;;;;;2108050;28;20042;-46
2020/12/01 00:33:27;;;;;;;8.82;7.03;;;8.50;74.70;;;;;;2107344;28;20455;-45
2020/12/01 00:34:27;;;;;;;8.80;7.45;;;8.60;74.90;;;;;;2108327;28;20048;-45
2020/12/01 00:35:30;;;;;;;9.38;7.35;;;8.60;74.90;;;;;;2107194;28;20149;-45
2020/12/01 00:36:30;;;;;;;9.98;7.15;;;8.60;74.80;;;;;;2107767;28;20485;-44
2020/12/01 00:37:31;;;;;;;9.57;7.60;;;8.60;74.90;;;;;;2108167;28;20050;-44
2020/12/01 00:38:31;;;;;;;10.18;7.78;;;8.60;75.50;;;;;;2106746;28;20042;-45
2020/12/01 00:39:32;;;;;;;10.85;8.00;;;8.60;74.80;;;;;;2107743;28;20131;-47
2020/12/01 00:40:33;;;;;;;8.98;7.65;;;8.60;74.70;;;;;;2107358;28;20036;-44
2020/12/01 00:41:35;;;;;;;9.80;7.90;;;8.60;74.70;;;;;;2106664;28;20062;-45
2020/12/01 00:42:35;;;;;;;10.25;7.60;;;8.60;74.70;;;;;;2106061;28;20040;-44
2020/12/01 00:43:36;;;;;;;9.98;7.97;;;8.60;74.70;;;;;;2106809;28;20158;-49
2020/12/01 00:44:36;;;;;;;9.02;7.20;;;8.60;74.80;;;;;;2106962;28;20032;-44
2020/12/01 00:45:37;;;;;;;7.75;6.75;;;8.60;75.50;;;;;;2107550;28;20134;-45
2020/12/01 00:46:37;;;;;;;9.25;7.45;;;8.70;74.90;;;;;;2106657;28;20024;-50
2020/12/01 00:47:38;;;;;;;9.77;7.63;;;8.60;74.80;;;;;;2107614;28;20021;-44
2020/12/01 00:48:38;;;;;;;9.15;7.38;;;8.70;74.80;;;;;;2106975;28;20063;-44
2020/12/01 00:49:39;;;;;;;9.88;7.70;;;8.70;74.80;;;;;;2107665;28;20393;-46
2020/12/01 00:50:40;;;;;;;9.10;7.53;;;8.60;74.70;;;;;;2107487;28;20378;-44
2020/12/01 00:51:40;;;;;;;8.73;7.32;;;8.70;74.80;;;;;;2107499;28;20035;-46
2020/12/01 00:52:41;;;;;;;10.00;7.53;;;8.70;74.70;;;;;;2107419;28;20415;-44
2020/12/01 00:53:41;;;;;;;8.68;7.50;;;8.70;74.70;;;;;;2107096;28;20553;-46
2020/12/01 00:54:42;;;;;;;10.45;8.30;;;8.70;74.70;;;;;;2106948;28;20062;-49
2020/12/01 00:55:43;;;;;;;9.07;7.88;;;8.70;74.70;;;;;;2106845;28;20317;-44
2020/12/01 00:56:43;;;;;;;8.50;7.10;;;8.70;74.80;;;;;;2107149;28;20031;-45
2020/12/01 00:57:44;;;;;;;9.13;7.40;;;8.70;74.70;;;;;;2106894;28;20074;-44
2020/12/01 00:58:44;;;;;;;10.43;8.32;;;8.70;74.70;;;;;;2107800;28;20535;-44
2020/12/01 00:59:45;;;;;;;9.77;7.80;;;8.70;74.70;;;;;;2106996;28;20492;-44
2020/12/01 01:00:46;;;;;;;8.90;7.90;;;8.70;74.70;;;;;;2106022;28;20039;-46
2020/12/01 01:01:46;;;;;;;13.20;9.13;;;8.70;74.70;;;;;;2107356;28;20051;-46
2020/12/01 01:02:47;;;;;;;11.77;9.38;;;8.70;74.70;;;;;;2106494;28;20028;-46
2020/12/01 01:03:47;;;;;;;11.45;8.90;;;8.70;74.70;;;;;;2106337;28;20112;-45
2020/12/01 01:04:48;;;;;;;11.15;8.60;;;8.70;74.70;;;;;;2106594;28;20031;-45
2020/12/01 01:05:49;;;;;;;13.52;9.52;;;8.70;74.80;;;;;;2106596;28;20019;-44
2020/12/01 01:06:50;;;;;;;14.60;8.77;;;8.70;74.70;;;;;;2108048;28;20058;-43
2020/12/01 01:07:51;;;;;;;12.02;9.20;;;8.70;74.80;;;;;;2105526;28;20040;-46
2020/12/01 01:08:51;;;;;;;12.55;9.02;;;8.70;74.80;;;;;;2105984;28;20059;-43
2020/12/01 01:09:52;;;;;;;11.13;9.23;;;8.70;74.80;;;;;;2106489;28;20028;-44
2020/12/01 01:10:53;;;;;;;11.82;9.27;;;8.80;74.90;;;;;;2106801;28;20038;-44
2020/12/01 01:11:54;;;;;;;12.82;9.48;;;8.80;74.90;;;;;;2105959;28;20024;-44
2020/12/01 01:12:54;;;;;;;13.20;10.00;;;8.80;75.00;;;;;;2099187;28;20143;-43
2020/12/01 01:13:55;;;;;;;13.60;9.77;;;8.70;74.90;;;;;;2107763;28;20074;-45
2020/12/01 01:14:56;;;;;;;11.65;9.45;;;8.80;75.10;;;;;;2107424;28;20028;-43
2020/12/01 01:15:57;;;;;;;12.00;9.23;;;8.80;75.10;;;;;;2106049;28;20012;-44
2020/12/01 01:16:57;;;;;;;16.08;10.55;;;8.80;75.10;;;;;;2106750;28;20078;-43
2020/12/01 01:17:59;;;;;;;16.85;11.05;;;8.80;75.10;;;;;;2091501;28;20167;-45
2020/12/01 01:19:01;;;;;;;14.20;9.70;;;8.80;75.10;;;;;;2093089;28;20627;-44
2020/12/01 01:20:04;;;;;;;16.48;10.20;;;8.80;75.10;;;;;;2101811;28;20109;-45
2020/12/01 01:21:04;;;;;;;14.93;10.73;;;8.80;75.10;;;;;;2107271;28;20032;-47
2020/12/01 01:22:05;;;;;;;14.02;10.18;;;8.80;75.10;;;;;;2108151;28;20406;-45
2020/12/01 01:23:05;;;;;;;12.15;10.02;;;8.80;75.00;;;;;;2106315;28;20087;-46
2020/12/01 01:24:06;;;;;;;13.35;9.30;;;8.80;75.10;;;;;;2105959;28;20027;-45
2020/12/01 01:25:07;;;;;;;13.40;10.20;;;8.80;75.10;;;;;;2106239;28;20302;-44
2020/12/01 01:26:09;;;;;;;13.25;9.90;;;8.80;75.10;;;;;;2096671;28;20021;-44
2020/12/01 01:27:09;;;;;;;14.02;10.00;;;8.90;75.10;;;;;;2097810;28;20563;-44
2020/12/01 01:28:10;;;;;;;11.98;9.82;;;8.90;75.00;;;;;;2105975;28;20043;-44
2020/12/01 01:29:10;;;;;;;14.45;10.27;;;8.90;75.00;;;;;;2107295;28;20024;-44
2020/12/01 01:30:14;;;;;;;14.23;10.35;;;8.80;75.00;;;;;;2107740;28;20089;-44
2020/12/01 01:31:19;;;;;;;13.48;10.38;;;8.90;75.70;;;;;;2105800;28;20036;-46
2020/12/01 01:32:19;;;;;;;11.77;10.00;;;8.90;75.20;;;;;;2106861;28;20032;-44
2020/12/01 01:33:20;;;;;;;12.85;10.35;;;8.90;75.10;;;;;;2107304;28;20478;-45
2020/12/01 01:34:21;;;;;;;15.23;10.60;;;8.90;75.10;;;;;;2106760;28;20092;-44
2020/12/01 01:35:22;;;;;;;15.35;10.88;;;8.90;75.20;;;;;;2107266;28;20131;-44
2020/12/01 01:36:22;;;;;;;13.68;10.90;;;8.90;75.10;;;;;;2106925;28;20481;-43
2020/12/01 01:37:23;;;;;;;13.43;10.25;;;8.90;75.10;;;;;;2107368;28;20067;-49
2020/12/01 01:38:23;;;;;;;14.00;11.23;;;8.90;75.00;;;;;;2106427;28;20038;-46
2020/12/01 01:39:24;;;;;;;15.45;10.55;;;8.90;75.10;;;;;;2106920;28;20036;-48
2020/12/01 01:40:27;;;;;;;12.15;10.02;;;8.90;75.10;;;;;;2105627;28;20389;-46
2020/12/01 01:41:35;;;;;;;13.55;9.68;;;8.90;75.10;;;;;;2106798;28;21032;-49
2020/12/01 01:42:36;;;;;;;15.18;10.82;;;9.00;75.30;;;;;;2105518;28;20067;-46
2020/12/01 01:43:36;;;;;;;15.45;10.98;;;8.90;75.10;;;;;;2106721;28;20032;-45
2020/12/01 01:44:37;;;;;;;13.25;10.48;;;9.00;75.20;;;;;;2107409;28;20108;-47
2020/12/01 01:45:46;;;;;;;15.77;10.90;;;9.00;75.10;;;;;;2106278;28;20024;-46
2020/12/01 01:46:51;;;;;;;14.93;11.13;;;8.90;75.10;;;;;;2106253;28;20024;-50
2020/12/01 01:47:51;;;;;;;13.73;10.63;;;9.00;75.10;;;;;;2090283;28;20029;-48
2020/12/01 01:48:52;;;;;;;11.60;9.50;;;9.00;75.10;;;;;;2090817;28;20557;-44
2020/12/01 01:50:06;;;;;;;14.18;10.52;;;9.00;75.20;;;;;;2097933;28;20355;-46
2020/12/01 01:51:15;;;;;;;13.60;9.68;;;9.00;75.30;;;;;;2100034;28;20035;-45
2020/12/01 01:52:22;;;;;;;11.27;9.00;;;9.00;75.20;;;;;;2106157;28;20028;-44
2020/12/01 01:53:23;;;;;;;12.48;10.05;;;9.00;75.20;;;;;;2106847;28;20374;-44
2020/12/01 01:54:26;;;;;;;15.32;10.30;;;9.00;75.10;;;;;;2106907;28;20117;-47
2020/12/01 01:55:27;;;;;;;14.60;10.90;;;9.00;75.10;;;;;;2105721;28;20031;-45
2020/12/01 01:56:33;;;;;;;14.23;10.98;;;9.00;75.10;;;;;;2106521;28;20125;-44
2020/12/01 01:57:35;;;;;;;13.98;11.15;;;9.00;75.20;;;;;;2107017;28;20109;-46
2020/12/01 01:58:41;;;;;;;13.43;10.50;;;9.00;75.10;;;;;;2107411;28;20473;-45
2020/12/01 01:59:45;;;;;;;12.88;9.75;;;9.00;75.30;;;;;;2107130;28;20043;-48
2020/12/01 02:01:00;;;;;;;14.05;9.95;;;9.00;75.20;;;;;;2106491;28;20104;-44
2020/12/01 02:02:01;;;;;;;13.85;10.82;;;9.00;75.40;;;;;;2107097;28;20047;-44
2020/12/01 02:03:02;;;;;;;14.93;11.38;;;9.00;75.20;;;;;;2106692;28;20481;-45
2020/12/01 02:04:09;;;;;;;13.63;10.32;;;9.10;75.20;;;;;;2107305;28;20020;-44
2020/12/01 02:05:10;;;;;;;13.77;10.48;;;9.10;75.40;;;;;;2107146;28;20097;-44
2020/12/01 02:06:24;;;;;;;13.75;10.43;;;9.10;75.30;;;;;;2106845;28;20032;-46
2020/12/01 02:07:25;;;;;;;14.68;10.40;;;9.10;75.50;;;;;;2106142;28;20032;-45
2020/12/01 02:08:27;;;;;;;12.90;10.40;;;9.10;75.40;;;;;;2106901;28;20107;-44
2020/12/01 02:09:47;;;;;;;14.38;10.40;;;9.10;75.40;;;;;;2106799;28;20081;-48
2020/12/01 02:10:48;;;;;;;13.20;10.15;;;9.10;75.50;;;;;;2105085;28;20027;-47
2020/12/01 02:11:49;;;;;;;13.93;10.77;;;9.10;75.40;;;;;;2107693;28;20115;-44
2020/12/01 02:12:53;;;;;;;14.18;10.73;;;9.10;75.40;;;;;;2106016;28;20119;-45
2020/12/01 02:14:10;;;;;;;12.35;10.57;;;9.10;75.50;;;;;;2107254;28;20024;-45
2020/12/01 02:15:10;;;;;;;12.40;9.32;;;9.10;75.60;;;;;;2107762;28;20032;-45
2020/12/01 02:16:11;;;;;;;14.45;10.95;;;9.20;75.40;;;;;;2106362;28;20357;-47
2020/12/01 02:17:28;;;;;;;13.20;10.52;;;9.10;75.50;;;;;;2106685;28;20568;-49
2020/12/01 02:18:31;;;;;;;13.40;10.32;;;9.20;75.70;;;;;;2107557;28;20062;-44
2020/12/01 02:19:31;;;;;;;11.85;9.85;;;9.20;75.60;;;;;;2106750;28;20350;-43
2020/12/01 02:20:36;;;;;;;13.50;10.63;;;9.20;75.60;;;;;;2107041;28;20048;-44
2020/12/01 02:21:39;;;;;;;14.07;10.77;;;9.20;75.50;;;;;;2107606;28;20020;-43
2020/12/01 02:22:45;;;;;;;14.18;10.65;;;9.20;75.60;;;;;;2106672;28;20020;-44
2020/12/01 02:23:45;;;;;;;14.00;10.60;;;9.20;75.60;;;;;;2105407;28;20030;-44
2020/12/01 02:24:47;;;;;;;14.18;10.52;;;9.20;75.60;;;;;;2098675;28;20028;-45
2020/12/01 02:25:47;;;;;;;12.52;10.95;;;9.20;75.60;;;;;;2099021;28;20380;-46
2020/12/01 02:26:55;;;;;;;12.32;10.65;;;9.20;75.70;;;;;;2106855;28;20031;-45
2020/12/01 02:28:00;;;;;;;14.30;10.85;;;9.30;75.80;;;;;;2106231;28;20070;-43
2020/12/01 02:29:07;;;;;;;14.90;9.93;;;9.30;75.80;;;;;;2107165;28;20296;-46
2020/12/01 02:30:11;;;;;;;14.52;9.93;;;9.30;75.90;;;;;;2106769;28;20024;-44
2020/12/01 02:31:12;;;;;;;13.10;9.80;;;9.30;75.80;;;;;;2105482;28;20458;-44
2020/12/01 02:32:13;;;;;;;13.95;10.80;;;9.30;75.90;;;;;;2106241;28;20032;-45
2020/12/01 02:33:14;;;;;;;14.43;10.32;;;9.30;76.00;;;;;;2106800;28;20464;-45
2020/12/01 02:34:18;;;;;;;12.45;10.13;;;9.30;76.60;;;;;;2107113;28;20031;-44
2020/12/01 02:35:18;;;;;;;13.13;9.57;;;9.30;76.00;;;;;;2106667;28;20016;-45
2020/12/01 02:36:19;;;;;;;12.55;9.98;;;9.40;76.00;;;;;;2107346;28;20034;-44
2020/12/01 02:37:23;;;;;;;13.30;10.25;;;9.30;75.90;;;;;;2106983;28;20081;-45
2020/12/01 02:38:23;;;;;;;12.25;9.90;;;9.40;76.00;;;;;;2105715;28;20037;-48
2020/12/01 02:39:27;;;;;;;12.30;9.13;;;9.40;76.00;;;;;;2106066;28;20036;-48
2020/12/01 02:40:28;;;;;;;11.88;9.85;;;9.40;76.00;;;;;;2106720;28;20019;-44
2020/12/01 02:41:28;;;;;;;12.27;9.20;;;9.40;76.00;;;;;;2106398;28;20037;-45
2020/12/01 02:42:29;;;;;;;12.57;9.55;;;9.40;76.00;;;;;;2106089;28;20057;-46
2020/12/01 02:43:30;;;;;;;13.00;8.85;;;9.40;76.00;;;;;;2106578;28;20036;-44
2020/12/01 02:44:30;;;;;;;12.68;9.68;;;9.40;76.00;;;;;;2106605;28;20513;-45
2020/12/01 02:45:31;;;;;;;11.02;8.68;;;9.40;76.10;;;;;;2107270;28;20027;-44
2020/12/01 02:46:37;;;;;;;10.50;8.60;;;9.50;76.10;;;;;;2105260;28;20028;-46
2020/12/01 02:47:38;;;;;;;10.93;9.10;;;9.50;76.10;;;;;;2107199;28;20034;-44
2020/12/01 02:48:38;;;;;;;11.82;8.50;;;9.50;76.10;;;;;;2106888;28;20034;-45
2020/12/01 02:49:39;;;;;;;11.02;8.15;;;9.50;76.10;;;;;;2107244;28;20027;-45
2020/12/01 02:50:40;;;;;;;10.90;8.65;;;9.50;76.10;;;;;;2106779;28;20028;-47
2020/12/01 02:51:40;;;;;;;9.45;8.13;;;9.50;76.10;;;;;;2107006;28;20077;-44
2020/12/01 02:52:42;;;;;;;10.68;7.72;;;9.50;76.10;;;;;;2106959;28;20053;-44
2020/12/01 02:53:42;;;;;;;8.18;7.30;;;9.50;76.10;;;;;;2105893;28;20020;-45
2020/12/01 02:54:43;;;;;;;9.77;7.70;;;9.50;76.10;;;;;;2105134;28;20036;-46
2020/12/01 02:55:43;;;;;;;9.02;7.18;;;9.50;76.00;;;;;;2106440;28;20031;-47
2020/12/01 02:56:45;;;;;;;8.85;6.65;;;9.60;76.10;;;;;;2106495;28;20144;-48
2020/12/01 02:57:46;;;;;;;10.23;7.20;;;9.60;76.10;;;;;;2105098;28;20082;-47
2020/12/01 02:58:46;;;;;;;9.43;7.07;;;9.60;76.10;;;;;;2106852;28;20044;-47
2020/12/01 02:59:47;;;;;;;8.82;6.80;;;9.60;76.00;;;;;;2105946;28;20397;-43
2020/12/01 03:00:47;;;;;;;7.72;6.78;;;9.60;76.00;;;;;;2106694;28;20351;-46
2020/12/01 03:01:48;;;;;;;9.63;6.18;;;9.60;76.00;;;;;;2105675;28;20481;-44
2020/12/01 03:02:48;;;;;;;6.60;5.53;;;9.60;76.00;;;;;;2106462;28;20036;-46
2020/12/01 03:03:49;;;;;;;6.22;5.20;;;9.60;75.90;;;;;;2109110;28;20028;-46
2020/12/01 03:04:49;;;;;;;6.68;5.30;;;9.60;75.90;;;;;;2109070;28;20103;-46
2020/12/01 03:05:50;;;;;;;7.28;5.50;;;9.70;75.90;;;;;;2108788;28;20020;-47
2020/12/01 03:06:50;;;;;;;6.15;4.70;;;9.70;75.90;;;;;;2108670;28;20026;-44
2020/12/01 03:07:51;;;;;;;6.40;4.93;;;9.70;76.00;;;;;;2108786;28;20245;-46
2020/12/01 03:08:52;;;;;;;7.68;4.47;;;9.70;76.00;;;;;;2107214;28;20030;-45
2020/12/01 03:09:52;;;;;;;4.45;3.80;;;9.70;75.90;;;;;;2107799;28;20032;-44
2020/12/01 03:10:53;;;;;;;5.97;3.65;;;9.70;75.90;;;;;;2108415;28;20043;-49
2020/12/01 03:11:53;;;;;;;6.13;4.00;;;9.70;75.90;;;;;;2108849;28;20402;-45
2020/12/01 03:12:54;;;;;;;5.68;3.40;;;9.70;75.90;;;;;;2106879;28;20477;-44
2020/12/01 03:13:54;;;;;;;5.30;3.65;;;9.70;75.90;;;;;;2108180;28;20040;-44
2020/12/01 03:14:55;;;;;;;5.35;3.45;;;9.70;75.90;;;;;;2108163;28;20190;-45
2020/12/01 03:16:01;;;;;;;5.20;3.40;;;9.80;75.90;;;;;;2107791;28;20384;-48
2020/12/01 03:17:01;;;;;;;5.88;3.22;;;9.80;75.90;;;;;;2107743;28;20020;-46
2020/12/01 03:18:02;;;;;;;7.93;3.58;;;9.80;75.90;;;;;;2108249;28;20049;-46
2020/12/01 03:19:03;;;;;;;3.15;2.72;;;9.80;75.90;;;;;;2108274;28;20023;-44
2020/12/01 03:20:05;;;;;;;5.20;3.22;;;9.80;75.90;;;;;;2108170;28;20035;-44
2020/12/01 03:21:06;;;;;;;6.00;2.78;;;9.80;75.90;;;;;;2107755;28;20032;-46
2020/12/01 03:22:06;;;;;;;3.63;2.90;;;9.80;75.90;;;;;;2106681;28;20013;-44
2020/12/01 03:23:07;;;;;;;6.13;2.80;;;9.80;75.80;;;;;;2107325;28;20032;-45
2020/12/01 03:24:07;;;;;;;5.82;2.83;;;9.80;75.80;;;;;;2106940;28;20096;-46
2020/12/01 03:25:08;;;;;;;4.93;2.65;;;9.80;75.80;;;;;;2108019;28;20103;-45
2020/12/01 03:26:11;;;;;;;4.13;2.65;;;9.80;75.70;;;;;;2108319;28;20039;-47
2020/12/01 03:27:12;;;;;;;4.80;2.58;;;9.80;75.70;;;;;;2106870;28;20030;-48
2020/12/01 03:28:12;;;;;;;4.30;2.50;;;9.80;75.70;;;;;;2108004;28;20030;-47
2020/12/01 03:29:13;;;;;;;2.20;1.90;;;9.80;75.70;;;;;;2107263;28;20023;-45
2020/12/01 03:30:13;;;;;;;4.93;2.40;;;9.90;75.80;;;;;;2107646;28;20055;-44
2020/12/01 03:31:17;;;;;;;5.43;1.90;;;9.80;75.70;;;;;;2106412;28;20042;-45
2020/12/01 03:32:20;;;;;;;4.90;2.25;;;9.90;76.50;;;;;;2107883;28;20392;-51
2020/12/01 03:33:22;;;;;;;4.88;1.85;;;9.90;75.70;;;;;;2107242;28;20036;-49
2020/12/01 03:34:22;;;;;;;4.15;2.10;;;9.90;75.70;;;;;;2108151;28;20375;-44
2020/12/01 03:35:23;;;;;;;2.55;1.80;;;9.90;75.60;;;;;;2108049;28;20073;-45
2020/12/01 03:36:23;;;;;;;2.47;1.50;;;9.90;75.60;;;;;;2108305;28;20396;-46
2020/12/01 03:37:24;;;;;;;3.10;1.67;;;9.90;75.70;;;;;;2107058;28;20130;-44
2020/12/01 03:38:25;;;;;;;1.90;1.65;;;9.90;75.60;;;;;;2106601;28;20077;-46
2020/12/01 03:39:25;;;;;;;4.78;1.48;;;9.90;75.50;;;;;;2108124;28;20032;-46
2020/12/01 03:40:26;;;;;;;2.50;1.38;;;9.90;75.50;;;;;;2108527;28;20071;-45
2020/12/01 03:41:26;;;;;;;3.75;1.23;;;9.90;75.40;;;;;;2107930;28;20389;-45
2020/12/01 03:42:27;;;;;;;4.75;1.50;;;9.90;75.40;;;;;;2107702;28;20036;-44
2020/12/01 03:43:27;;;;;;;3.10;1.30;;;9.90;75.40;;;;;;2107983;28;20024;-44
2020/12/01 03:44:29;;;;;;;5.38;1.55;;;9.90;75.40;;;;;;2108825;28;20028;-44
2020/12/01 03:45:31;;;;;;;4.18;1.42;;;10.00;75.50;;;;;;2108187;28;20131;-46
2020/12/01 03:46:31;;;;;;;2.10;1.30;;;9.90;75.40;;;;;;2107059;28;20665;-44
2020/12/01 03:47:32;;;;;;;4.95;1.35;;;9.90;75.40;;;;;;2108963;28;20035;-44
2020/12/01 03:48:32;;;;;;;3.00;1.52;;;9.90;75.40;;;;;;2108465;28;20056;-44
2020/12/01 03:49:33;;;;;;;1.67;1.10;;;9.90;75.50;;;;;;2107497;28;20069;-45
2020/12/01 03:50:34;;;;;;;1.65;1.27;;;9.90;75.50;;;;;;2108511;28;20028;-45
2020/12/01 03:51:34;;;;;;;3.47;1.35;;;10.00;75.60;;;;;;2107008;28;20390;-44
2020/12/01 03:52:37;;;;;;;2.28;1.30;;;10.00;75.60;;;;;;2108404;28;20209;-43
2020/12/01 03:53:37;;;;;;;2.60;1.45;;;10.00;75.60;;;;;;2105459;28;20036;-44
2020/12/01 03:54:38;;;;;;;3.40;1.30;;;10.00;75.60;;;;;;2106940;28;20442;-44
2020/12/01 03:55:38;;;;;;;2.85;1.42;;;10.00;75.70;;;;;;2108785;28;20058;-47
2020/12/01 03:56:39;;;;;;;3.22;1.50;;;10.00;75.70;;;;;;2108424;28;20028;-45
2020/12/01 03:57:43;;;;;;;2.97;1.30;;;10.00;75.70;;;;;;2107262;28;20106;-45
2020/12/01 03:58:43;;;;;;;2.58;1.65;;;10.00;75.70;;;;;;2108555;28;20397;-44
2020/12/01 03:59:44;;;;;;;1.92;1.50;;;10.00;75.70;;;;;;2107373;28;20036;-47
2020/12/01 04:00:44;;;;;;;2.65;1.50;;;10.00;75.70;;;;;;2107557;28;20063;-43
2020/12/01 04:01:45;;;;;;;4.13;1.55;;;10.00;75.70;;;;;;2107705;28;20036;-45
2020/12/01 04:02:46;;;;;;;3.90;1.60;;;10.00;75.70;;;;;;2108470;28;20034;-45
2020/12/01 04:03:46;;;;;;;3.40;1.65;;;10.00;75.70;;;;;;2108313;28;20414;-46
2020/12/01 04:04:47;;;;;;;2.80;1.55;;;10.00;75.80;;;;;;2107500;28;20024;-44
2020/12/01 04:05:47;;;;;;;2.45;1.45;;;10.00;75.70;;;;;;2107865;28;20083;-44
2020/12/01 04:06:48;;;;;;;2.03;1.40;;;10.10;75.80;;;;;;2108623;28;20020;-45
2020/12/01 04:07:53;;;;;;;4.25;1.80;;;10.00;75.70;;;;;;2107975;28;20111;-48
2020/12/01 04:08:54;;;;;;;1.98;1.75;;;10.10;75.80;;;;;;2106036;28;20384;-45
2020/12/01 04:09:54;;;;;;;2.50;1.80;;;10.10;75.70;;;;;;2107334;28;20063;-48
2020/12/01 04:10:55;;;;;;;3.20;1.98;;;10.10;75.70;;;;;;2107279;28;20032;-46
2020/12/01 04:11:56;;;;;;;4.10;1.80;;;10.10;75.80;;;;;;2107821;28;20106;-44
2020/12/01 04:12:56;;;;;;;5.70;2.10;;;10.10;75.70;;;;;;2106457;28;20489;-46
2020/12/01 04:13:57;;;;;;;3.30;1.60;;;10.10;75.70;;;;;;2106873;28;20085;-44
2020/12/01 04:14:58;;;;;;;2.40;1.60;;;10.10;75.70;;;;;;2107573;28;20167;-44
2020/12/01 04:15:58;;;;;;;3.58;2.28;;;10.10;75.70;;;;;;2107354;28;20090;-45
2020/12/01 04:16:59;;;;;;;3.42;1.73;;;10.10;75.70;;;;;;2107872;28;20074;-44
2020/12/01 04:17:59;;;;;;;3.28;1.70;;;10.10;75.70;;;;;;2107634;28;20077;-48
2020/12/01 04:19:00;;;;;;;2.97;1.83;;;10.10;75.70;;;;;;2107305;28;20019;-45
2020/12/01 04:20:02;;;;;;;2.50;1.77;;;10.10;75.60;;;;;;2107618;28;20354;-47
2020/12/01 04:21:02;;;;;;;3.17;1.80;;;10.10;75.60;;;;;;2107237;28;20063;-44
2020/12/01 04:22:03;;;;;;;2.85;1.58;;;10.10;75.50;;;;;;2107775;28;20429;-46
2020/12/01 04:23:04;;;;;;;2.20;1.48;;;10.10;75.50;;;;;;2107119;28;20023;-49
2020/12/01 04:24:04;;;;;;;4.53;1.98;;;10.10;75.50;;;;;;2106290;28;20440;-46
2020/12/01 04:25:08;;;;;;;5.40;2.20;;;10.20;75.50;;;;;;2108444;28;20441;-44
2020/12/01 04:26:09;;;;;;;3.50;1.92;;;10.20;75.50;;;;;;2107566;28;20424;-44
2020/12/01 04:27:11;;;;;;;2.53;1.77;;;10.20;75.40;;;;;;2106604;28;20119;-44
2020/12/01 04:28:12;;;;;;;3.15;1.92;;;10.20;75.30;;;;;;2106194;28;20028;-46
2020/12/01 04:29:12;;;;;;;3.83;2.15;;;10.20;75.30;;;;;;2107406;28;20037;-48
2020/12/01 04:30:13;;;;;;;4.05;1.75;;;10.20;75.20;;;;;;2107351;28;20055;-46
2020/12/01 04:31:14;;;;;;;3.63;2.03;;;10.20;75.20;;;;;;2106731;28;20032;-44
2020/12/01 04:32:15;;;;;;;6.00;2.10;;;10.20;75.20;;;;;;2107810;28;20027;-44
2020/12/01 04:33:15;;;;;;;3.65;2.08;;;10.20;75.10;;;;;;2107753;28;20501;-47
2020/12/01 04:34:16;;;;;;;5.30;2.10;;;10.20;75.20;;;;;;2108200;28;20032;-45
2020/12/01 04:35:17;;;;;;;3.95;1.88;;;10.20;75.20;;;;;;2107717;28;20089;-45
2020/12/01 04:36:18;;;;;;;4.93;2.10;;;10.20;75.30;;;;;;2108205;28;20028;-43
2020/12/01 04:37:18;;;;;;;3.58;2.08;;;10.20;75.20;;;;;;2107328;28;20059;-46
2020/12/01 04:38:19;;;;;;;6.05;2.10;;;10.20;75.30;;;;;;2107625;28;20126;-46
2020/12/01 04:39:19;;;;;;;4.65;2.28;;;10.20;75.30;;;;;;2107081;28;20036;-44
2020/12/01 04:40:25;;;;;;;5.72;2.05;;;10.20;75.20;;;;;;2107421;28;20023;-45
2020/12/01 04:41:25;;;;;;;5.35;2.58;;;10.20;75.10;;;;;;2107803;28;20069;-45
2020/12/01 04:42:27;;;;;;;4.45;1.90;;;10.20;75.00;;;;;;2105898;28;20043;-44
2020/12/01 04:43:27;;;;;;;4.45;2.10;;;10.20;75.10;;;;;;2107370;28;20077;-44
2020/12/01 04:44:38;;;;;;;5.50;2.10;;;10.20;75.10;;;;;;2108025;28;20036;-43
2020/12/01 04:45:41;;;;;;;4.40;2.20;;;10.20;75.10;;;;;;2107730;28;20032;-45
2020/12/01 04:46:43;;;;;;;6.10;2.45;;;10.20;75.10;;;;;;2106432;28;20021;-48
2020/12/01 04:47:58;;;;;;;6.20;2.30;;;10.20;75.00;;;;;;2107231;28;20080;-46
2020/12/01 04:49:06;;;;;;;7.55;2.45;;;10.20;75.10;;;;;;2107217;28;20737;-46
2020/12/01 04:50:11;;;;;;;5.82;2.58;;;10.20;74.90;;;;;;2107741;28;20031;-44
2020/12/01 04:52:00;;;;;;;4.90;2.47;;;10.20;74.90;;;;;;2107235;28;20012;-49
2020/12/01 04:53:09;;;;;;;3.65;2.30;;;10.20;75.20;;;;;;2073659;28;20046;-45
2020/12/01 04:54:21;;;;;;;9.20;3.10;;;10.20;74.70;;;;;;2073749;28;20069;-44
2020/12/01 04:55:48;;;;;;;5.53;2.95;;;10.20;74.70;;;;;;2073958;28;20030;-48
2020/12/01 04:57:15;;;;;;;7.40;4.03;;;10.10;74.70;;;;;;2073735;28;20022;-44
2020/12/01 04:58:40;;;;;;;7.20;4.45;;;10.10;74.60;;;;;;2079917;28;20030;-46
2020/12/01 05:00:00;;;;;;;5.88;3.95;;;10.10;74.40;;;;;;2104854;28;20035;-47
2020/12/01 05:01:16;;;;;;;10.75;4.63;;;10.10;74.30;;;;;;2106936;28;20024;-44
2020/12/01 05:02:48;;;;;;;8.38;5.00;;;10.10;74.40;;;;;;2107330;28;20096;-44
2020/12/01 05:04:16;;;;;;;8.57;4.88;;;10.10;74.50;;;;;;2107524;28;20497;-45
2020/12/01 05:05:47;;;;;;;12.10;6.25;;;10.10;74.50;;;;;;2107302;28;20044;-45
2020/12/01 05:07:14;;;;;;;9.73;5.18;;;10.10;74.70;;;;;;2107722;28;20024;-45
2020/12/01 05:08:35;;;;;;;8.77;5.10;;;10.00;74.40;;;;;;2107428;28;20020;-45
2020/12/01 05:09:40;;;;;;;9.50;5.40;;;10.00;74.60;;;;;;2107130;28;20082;-44
2020/12/01 05:10:45;;;;;;;8.25;5.32;;;10.00;74.50;;;;;;2107027;28;20073;-46
2020/12/01 05:11:54;;;;;;;7.85;5.50;;;10.00;74.50;;;;;;2107802;28;20019;-44
2020/12/01 05:12:58;;;;;;;8.23;5.35;;;10.10;74.80;;;;;;2104786;28;20088;-44
2020/12/01 05:14:25;;;;;;;8.82;5.50;;;10.00;74.80;;;;;;2107081;28;20022;-45
2020/12/01 05:15:38;;;;;;;11.13;5.63;;;10.00;75.10;;;;;;2098564;28;20070;-43
2020/12/01 05:16:53;;;;;;;9.57;6.00;;;10.00;75.00;;;;;;2106754;28;20059;-46
2020/12/01 05:18:21;;;;;;;11.20;5.43;;;10.00;74.90;;;;;;2107750;28;20874;-44
2020/12/01 05:19:39;;;;;;;9.40;5.82;;;10.00;75.00;;;;;;2107617;28;20400;-44
2020/12/01 05:20:53;;;;;;;11.60;5.57;;;10.00;74.90;;;;;;2107693;28;20111;-46
2020/12/01 05:21:54;;;;;;;9.38;5.50;;;10.00;74.80;;;;;;2107407;28;20032;-45
2020/12/01 05:23:02;;;;;;;11.57;5.80;;;10.00;74.60;;;;;;2106677;28;20572;-44
2020/12/01 05:24:03;;;;;;;7.70;5.28;;;10.00;74.80;;;;;;2105636;28;20015;-45
2020/12/01 05:25:15;;;;;;;8.38;5.32;;;10.00;74.80;;;;;;2106919;28;20040;-49
2020/12/01 05:26:20;;;;;;;10.82;5.93;;;10.00;74.80;;;;;;2106310;28;20012;-45
2020/12/01 05:27:30;;;;;;;10.50;5.57;;;10.00;74.90;;;;;;2106460;28;20024;-45
2020/12/01 05:28:49;;;;;;;9.52;5.65;;;10.00;75.00;;;;;;2106479;28;20039;-44
2020/12/01 05:29:57;;;;;;;11.15;5.70;;;10.00;75.20;;;;;;2098186;28;20453;-47